sensor_id;sensor_type;location;lat;lon;timestamp;pressure;altitude;pressure_sealevel;temperature;humidity
63111;BME280;49201;53.426;10.300;2023-05-27T00:00:16;103047.06;;;10.41;100.00
63111;BME280;49201;53.426;10.300;2023-05-27T00:02:42;103047.13;;;10.42;100.00
63111;BME280;49201;53.426;10.300;2023-05-27T00:05:07;103041.97;;;10.26;100.00
63111;BME280;49201;53.426;10.300;2023-05-27T00:07:33;103040.34;;;10.28;100.00
63111;BME280;49201;53.426;10.300;2023-05-27T00:09:58;103041.69;;;10.22;100.00
63111;BME280;49201;53.426;10.300;2023-05-27T00:12:24;103045.94;;;10.21;100.00
63111;BME280;49201;53.426;10.300;2023-05-27T00:14:49;103038.59;;;10.27;100.00
63111;BME280;49201;53.426;10.300;2023-05-27T00:17:15;103036.09;;;10.13;100.00
63111;BME280;49201;53.426;10.300;2023-05-27T00:19:41;103042.34;;;10.18;100.00
63111;BME280;49201;53.426;10.300;2023-05-27T00:22:07;103045.34;;;10.11;100.00
63111;BME280;49201;53.426;10.300;2023-05-27T00:24:35;103041.72;;;10.07;100.00
63111;BME280;49201;53.426;10.300;2023-05-27T00:27:05;103039.75;;;10.03;100.00
63111;BME280;49201;53.426;10.300;2023-05-27T00:29:31;103038.53;;;9.82;100.00
63111;BME280;49201;53.426;10.300;2023-05-27T00:31:56;103039.50;;;9.84;100.00
63111;BME280;49201;53.426;10.300;2023-05-27T00:34:22;103045.50;;;9.70;100.00
63111;BME280;49201;53.426;10.300;2023-05-27T00:36:47;103041.34;;;9.72;100.00
63111;BME280;49201;53.426;10.300;2023-05-27T00:39:13;103047.91;;;9.82;100.00
63111;BME280;49201;53.426;10.300;2023-05-27T00:41:41;103039.31;;;9.81;100.00
63111;BME280;49201;53.426;10.300;2023-05-27T00:44:08;103041.03;;;9.81;100.00
63111;BME280;49201;53.426;10.300;2023-05-27T00:46:33;103044.25;;;9.64;100.00
63111;BME280;49201;53.426;10.300;2023-05-27T00:48:59;103043.56;;;9.66;100.00
63111;BME280;49201;53.426;10.300;2023-05-27T00:51:25;103044.97;;;9.61;100.00
63111;BME280;49201;53.426;10.300;2023-05-27T00:53:50;103045.84;;;9.62;100.00
63111;BME280;49201;53.426;10.300;2023-05-27T00:56:16;103042.56;;;9.64;100.00
63111;BME280;49201;53.426;10.300;2023-05-27T00:58:43;103040.88;;;9.50;100.00
63111;BME280;49201;53.426;10.300;2023-05-27T01:01:09;103039.41;;;9.54;100.00
63111;BME280;49201;53.426;10.300;2023-05-27T01:03:35;103040.88;;;9.50;100.00
63111;BME280;49201;53.426;10.300;2023-05-27T01:06:18;103034.88;;;9.35;100.00
63111;BME280;49201;53.426;10.300;2023-05-27T01:11:49;103032.16;;;9.32;100.00
63111;BME280;49201;53.426;10.300;2023-05-27T01:14:16;103029.59;;;9.32;100.00
63111;BME280;49201;53.426;10.300;2023-05-27T01:16:44;103027.81;;;9.31;100.00
63111;BME280;49201;53.426;10.300;2023-05-27T01:19:14;103027.56;;;9.27;100.00
63111;BME280;49201;53.426;10.300;2023-05-27T01:21:45;103033.47;;;9.26;100.00
63111;BME280;49201;53.426;10.300;2023-05-27T01:24:12;103043.59;;;9.24;100.00
63111;BME280;49201;53.426;10.300;2023-05-27T01:26:38;103044.44;;;9.25;100.00
63111;BME280;49201;53.426;10.300;2023-05-27T01:29:05;103037.41;;;9.21;100.00
63111;BME280;49201;53.426;10.300;2023-05-27T01:31:35;103029.69;;;9.06;100.00
63111;BME280;49201;53.426;10.300;2023-05-27T01:34:07;103048.38;;;9.05;100.00
63111;BME280;49201;53.426;10.300;2023-05-27T01:36:43;103042.97;;;9.01;100.00
63111;BME280;49201;53.426;10.300;2023-05-27T01:39:10;103039.22;;;9.09;100.00
63111;BME280;49201;53.426;10.300;2023-05-27T01:41:39;103036.56;;;9.07;100.00
63111;BME280;49201;53.426;10.300;2023-05-27T01:44:06;103037.97;;;9.02;100.00
63111;BME280;49201;53.426;10.300;2023-05-27T01:46:32;103040.25;;;8.98;100.00
63111;BME280;49201;53.426;10.300;2023-05-27T01:48:58;103033.97;;;8.93;100.00
63111;BME280;49201;53.426;10.300;2023-05-27T01:51:23;103034.59;;;8.89;100.00
63111;BME280;49201;53.426;10.300;2023-05-27T01:53:48;103035.28;;;8.86;100.00
63111;BME280;49201;53.426;10.300;2023-05-27T01:56:14;103034.03;;;8.80;100.00
63111;BME280;49201;53.426;10.300;2023-05-27T01:58:40;103026.63;;;8.84;100.00
63111;BME280;49201;53.426;10.300;2023-05-27T02:01:05;103027.53;;;8.85;100.00
63111;BME280;49201;53.426;10.300;2023-05-27T02:03:31;103023.59;;;8.77;100.00
63111;BME280;49201;53.426;10.300;2023-05-27T02:05:56;103020.84;;;8.74;100.00
63111;BME280;49201;53.426;10.300;2023-05-27T02:08:22;103022.34;;;8.70;100.00
63111;BME280;49201;53.426;10.300;2023-05-27T02:10:48;103025.13;;;8.60;100.00
63111;BME280;49201;53.426;10.300;2023-05-27T02:13:13;103025.22;;;8.62;100.00
63111;BME280;49201;53.426;10.300;2023-05-27T02:15:39;103021.50;;;8.57;100.00
63111;BME280;49201;53.426;10.300;2023-05-27T02:18:06;103018.06;;;8.56;100.00
63111;BME280;49201;53.426;10.300;2023-05-27T02:20:31;103024.81;;;8.56;100.00
63111;BME280;49201;53.426;10.300;2023-05-27T02:22:57;103021.50;;;8.57;100.00
63111;BME280;49201;53.426;10.300;2023-05-27T02:25:23;103029.66;;;8.51;100.00
63111;BME280;49201;53.426;10.300;2023-05-27T02:27:48;103017.69;;;8.50;100.00
63111;BME280;49201;53.426;10.300;2023-05-27T02:30:15;103017.00;;;8.40;100.00
63111;BME280;49201;53.426;10.300;2023-05-27T02:32:41;103029.09;;;8.29;100.00
63111;BME280;49201;53.426;10.300;2023-05-27T02:35:07;103032.13;;;8.37;100.00
63111;BME280;49201;53.426;10.300;2023-05-27T02:37:34;103025.47;;;8.39;100.00
63111;BME280;49201;53.426;10.300;2023-05-27T02:39:59;103026.34;;;8.26;100.00
63111;BME280;49201;53.426;10.300;2023-05-27T02:42:26;103028.69;;;8.36;100.00
63111;BME280;49201;53.426;10.300;2023-05-27T02:44:51;103029.66;;;8.38;100.00
63111;BME280;49201;53.426;10.300;2023-05-27T02:47:17;103021.84;;;8.35;100.00
63111;BME280;49201;53.426;10.300;2023-05-27T02:49:42;103023.38;;;8.33;100.00
63111;BME280;49201;53.426;10.300;2023-05-27T02:52:08;103027.44;;;8.30;100.00
63111;BME280;49201;53.426;10.300;2023-05-27T02:54:33;103025.94;;;8.33;100.00
63111;BME280;49201;53.426;10.300;2023-05-27T02:56:59;103028.00;;;8.26;100.00
63111;BME280;49201;53.426;10.300;2023-05-27T02:59:24;103033.81;;;8.23;100.00
63111;BME280;49201;53.426;10.300;2023-05-27T03:01:50;103026.59;;;8.18;100.00
63111;BME280;49201;53.426;10.300;2023-05-27T03:04:15;103026.50;;;8.16;100.00
63111;BME280;49201;53.426;10.300;2023-05-27T03:06:41;103025.75;;;8.17;100.00
63111;BME280;49201;53.426;10.300;2023-05-27T03:09:08;103028.09;;;8.14;100.00
63111;BME280;49201;53.426;10.300;2023-05-27T03:11:35;103030.44;;;8.11;100.00
63111;BME280;49201;53.426;10.300;2023-05-27T03:14:00;103026.22;;;8.12;100.00
63111;BME280;49201;53.426;10.300;2023-05-27T03:16:25;103021.41;;;8.03;100.00
63111;BME280;49201;53.426;10.300;2023-05-27T03:18:51;103025.41;;;8.00;100.00
63111;BME280;49201;53.426;10.300;2023-05-27T03:21:16;103025.72;;;8.04;100.00
63111;BME280;49201;53.426;10.300;2023-05-27T03:23:43;103029.47;;;8.09;100.00
63111;BME280;49201;53.426;10.300;2023-05-27T03:26:09;103031.81;;;8.06;100.00
63111;BME280;49201;53.426;10.300;2023-05-27T03:28:35;103031.81;;;8.06;100.00
63111;BME280;49201;53.426;10.300;2023-05-27T03:31:00;103027.78;;;8.10;100.00
63111;BME280;49201;53.426;10.300;2023-05-27T03:33:38;103039.06;;;8.00;100.00
63111;BME280;49201;53.426;10.300;2023-05-27T03:36:04;103031.91;;;8.08;100.00
63111;BME280;49201;53.426;10.300;2023-05-27T03:38:30;103027.28;;;8.02;100.00
63111;BME280;49201;53.426;10.300;2023-05-27T03:40:56;103037.41;;;8.01;100.00
63111;BME280;49201;53.426;10.300;2023-05-27T03:43:22;103031.69;;;8.05;100.00
63111;BME280;49201;53.426;10.300;2023-05-27T03:45:47;103038.19;;;8.13;100.00
63111;BME280;49201;53.426;10.300;2023-05-27T03:48:13;103030.63;;;8.14;100.00
63111;BME280;49201;53.426;10.300;2023-05-27T03:50:38;103023.19;;;8.17;100.00
63111;BME280;49201;53.426;10.300;2023-05-27T03:53:04;103039.59;;;8.21;100.00
63111;BME280;49201;53.426;10.300;2023-05-27T03:55:29;103038.81;;;8.22;100.00
63111;BME280;49201;53.426;10.300;2023-05-27T03:57:55;103034.78;;;8.25;100.00
63111;BME280;49201;53.426;10.300;2023-05-27T04:00:20;103028.00;;;8.26;100.00
63111;BME280;49201;53.426;10.300;2023-05-27T04:02:50;103034.78;;;8.25;100.00
63111;BME280;49201;53.426;10.300;2023-05-27T04:05:16;103026.53;;;8.29;100.00
63111;BME280;49201;53.426;10.300;2023-05-27T04:07:42;103027.00;;;8.37;100.00
63111;BME280;49201;53.426;10.300;2023-05-27T04:10:08;103024.06;;;8.44;100.00
63111;BME280;49201;53.426;10.300;2023-05-27T04:12:34;103031.84;;;8.45;100.00
63111;BME280;49201;53.426;10.300;2023-05-27T04:14:59;103034.88;;;8.53;100.00
63111;BME280;49201;53.426;10.300;2023-05-27T04:17:25;103032.56;;;8.57;100.00
63111;BME280;49201;53.426;10.300;2023-05-27T04:19:51;103033.84;;;8.64;100.00
63111;BME280;49201;53.426;10.300;2023-05-27T04:22:17;103037.75;;;8.72;100.00
63111;BME280;49201;53.426;10.300;2023-05-27T04:24:44;103027.75;;;8.75;100.00
63111;BME280;49201;53.426;10.300;2023-05-27T04:27:11;103015.34;;;8.81;100.00
63111;BME280;49201;53.426;10.300;2023-05-27T04:29:38;103020.72;;;8.85;100.00
63111;BME280;49201;53.426;10.300;2023-05-27T04:32:04;103027.00;;;8.90;100.00
63111;BME280;49201;53.426;10.300;2023-05-27T04:34:32;103028.25;;;8.97;100.00
63111;BME280;49201;53.426;10.300;2023-05-27T04:36:58;103029.50;;;9.03;100.00
63111;BME280;49201;53.426;10.300;2023-05-27T04:39:26;103022.03;;;9.06;100.00
63111;BME280;49201;53.426;10.300;2023-05-27T04:41:52;103031.13;;;9.16;100.00
63111;BME280;49201;53.426;10.300;2023-05-27T04:44:26;103022.00;;;9.19;100.00
63111;BME280;49201;53.426;10.300;2023-05-27T04:46:54;103023.25;;;9.26;100.00
63111;BME280;49201;53.426;10.300;2023-05-27T04:49:24;103017.69;;;9.33;100.00
63111;BME280;49201;53.426;10.300;2023-05-27T04:51:49;103021.38;;;9.38;100.00
63111;BME280;49201;53.426;10.300;2023-05-27T04:54:18;103024.50;;;9.47;100.00
63111;BME280;49201;53.426;10.300;2023-05-27T04:56:43;103019.81;;;9.54;100.00
63111;BME280;49201;53.426;10.300;2023-05-27T04:59:15;103020.19;;;9.60;100.00
63111;BME280;49201;53.426;10.300;2023-05-27T05:01:43;103024.94;;;9.69;100.00
63111;BME280;49201;53.426;10.300;2023-05-27T05:04:36;103016.91;;;9.77;100.00
63111;BME280;49201;53.426;10.300;2023-05-27T05:07:04;103010.66;;;9.87;100.00
63111;BME280;49201;53.426;10.300;2023-05-27T05:09:31;103011.19;;;9.96;100.00
63111;BME280;49201;53.426;10.300;2023-05-27T05:12:02;103016.63;;;10.02;100.00
63111;BME280;49201;53.426;10.300;2023-05-27T05:14:33;103012.25;;;10.14;100.00
63111;BME280;49201;53.426;10.300;2023-05-27T05:16:58;103014.50;;;10.24;100.00
63111;BME280;49201;53.426;10.300;2023-05-27T05:19:24;103007.97;;;10.29;100.00
63111;BME280;49201;53.426;10.300;2023-05-27T05:21:50;103010.41;;;10.42;100.00
63111;BME280;49201;53.426;10.300;2023-05-27T05:24:15;103003.22;;;10.51;100.00
63111;BME280;49201;53.426;10.300;2023-05-27T05:26:42;103006.28;;;10.60;100.00
63111;BME280;49201;53.426;10.300;2023-05-27T05:29:10;103000.94;;;10.71;100.00
63111;BME280;49201;53.426;10.300;2023-05-27T05:31:36;103003.28;;;10.83;100.00
63111;BME280;49201;53.426;10.300;2023-05-27T05:34:02;102995.88;;;10.89;100.00
63111;BME280;49201;53.426;10.300;2023-05-27T05:36:30;103005.72;;;10.97;100.00
63111;BME280;49201;53.426;10.300;2023-05-27T05:39:01;103008.94;;;11.09;100.00
63111;BME280;49201;53.426;10.300;2023-05-27T05:41:29;103008.94;;;11.09;100.00
63111;BME280;49201;53.426;10.300;2023-05-27T05:43:56;103007.41;;;11.29;100.00
63111;BME280;49201;53.426;10.300;2023-05-27T05:46:21;103011.09;;;11.34;100.00
63111;BME280;49201;53.426;10.300;2023-05-27T05:48:47;103017.09;;;11.34;100.00
63111;BME280;49201;53.426;10.300;2023-05-27T05:51:19;103003.28;;;11.48;100.00
63111;BME280;49201;53.426;10.300;2023-05-27T05:53:50;103002.38;;;11.64;100.00
63111;BME280;49201;53.426;10.300;2023-05-27T05:56:15;103013.19;;;11.74;100.00
63111;BME280;49201;53.426;10.300;2023-05-27T05:58:41;103013.41;;;11.79;100.00
63111;BME280;49201;53.426;10.300;2023-05-27T06:01:07;103010.63;;;11.92;100.00
63111;BME280;49201;53.426;10.300;2023-05-27T06:03:36;103006.59;;;11.97;100.00
63111;BME280;49201;53.426;10.300;2023-05-27T06:06:04;103016.91;;;12.14;100.00
63111;BME280;49201;53.426;10.300;2023-05-27T06:08:32;103006.91;;;12.20;100.00
63111;BME280;49201;53.426;10.300;2023-05-27T06:11:03;103010.84;;;12.31;100.00
63111;BME280;49201;53.426;10.300;2023-05-27T06:13:31;103010.63;;;12.44;100.00
63111;BME280;49201;53.426;10.300;2023-05-27T06:15:58;103016.84;;;12.67;100.00
63111;BME280;49201;53.426;10.300;2023-05-27T06:18:24;103012.38;;;12.82;100.00
63111;BME280;49201;53.426;10.300;2023-05-27T06:20:49;103000.75;;;12.90;100.00
63111;BME280;49201;53.426;10.300;2023-05-27T06:23:15;103010.84;;;13.05;100.00
63111;BME280;49201;53.426;10.300;2023-05-27T06:26:10;103009.16;;;13.24;100.00
63111;BME280;49201;53.426;10.300;2023-05-27T06:28:42;103008.31;;;13.44;100.00
63111;BME280;49201;53.426;10.300;2023-05-27T06:31:08;103009.78;;;13.58;100.00
63111;BME280;49201;53.426;10.300;2023-05-27T06:33:33;103012.94;;;13.72;100.00
63111;BME280;49201;53.426;10.300;2023-05-27T06:35:59;103008.34;;;13.85;100.00
63111;BME280;49201;53.426;10.300;2023-05-27T06:38:24;103010.22;;;13.89;100.00
63111;BME280;49201;53.426;10.300;2023-05-27T06:40:52;103007.41;;;13.63;100.00
63111;BME280;49201;53.426;10.300;2023-05-27T06:43:18;103005.69;;;14.04;100.00
63111;BME280;49201;53.426;10.300;2023-05-27T06:46:07;102993.63;;;14.24;100.00
63111;BME280;49201;53.426;10.300;2023-05-27T06:49:04;102979.28;;;14.30;100.00
63111;BME280;49201;53.426;10.300;2023-05-27T06:51:30;102987.03;;;14.52;100.00
63111;BME280;49201;53.426;10.300;2023-05-27T06:53:57;102988.28;;;14.19;100.00
63111;BME280;49201;53.426;10.300;2023-05-27T06:56:29;102979.72;;;14.64;100.00
63111;BME280;49201;53.426;10.300;2023-05-27T06:59:15;102966.25;;;14.95;100.00
63111;BME280;49201;53.426;10.300;2023-05-27T07:01:41;102953.34;;;14.95;100.00
63111;BME280;49201;53.426;10.300;2023-05-27T07:04:10;102981.63;;;14.92;100.00
63111;BME280;49201;53.426;10.300;2023-05-27T07:06:45;102952.50;;;15.19;100.00
63111;BME280;49201;53.426;10.300;2023-05-27T07:09:11;102953.34;;;15.43;100.00
63111;BME280;49201;53.426;10.300;2023-05-27T07:11:37;102945.38;;;15.61;100.00
63111;BME280;49201;53.426;10.300;2023-05-27T07:14:07;102922.97;;;15.61;100.00
63111;BME280;49201;53.426;10.300;2023-05-27T07:16:35;102936.69;;;15.85;100.00
63111;BME280;49201;53.426;10.300;2023-05-27T07:19:01;102931.88;;;15.97;100.00
63111;BME280;49201;53.426;10.300;2023-05-27T07:21:31;102916.91;;;15.59;100.00
63111;BME280;49201;53.426;10.300;2023-05-27T07:23:56;102937.19;;;15.49;100.00
63111;BME280;49201;53.426;10.300;2023-05-27T07:26:32;102956.13;;;16.01;100.00
63111;BME280;49201;53.426;10.300;2023-05-27T07:28:59;102880.44;;;16.05;100.00
63111;BME280;49201;53.426;10.300;2023-05-27T07:31:57;102885.53;;;16.31;100.00
63111;BME280;49201;53.426;10.300;2023-05-27T07:34:25;102853.50;;;16.26;100.00
63111;BME280;49201;53.426;10.300;2023-05-27T07:36:51;102875.56;;;16.43;100.00
63111;BME280;49201;53.426;10.300;2023-05-27T07:39:17;102819.63;;;16.45;100.00
63111;BME280;49201;53.426;10.300;2023-05-27T07:41:43;102789.31;;;16.74;100.00
63111;BME280;49201;53.426;10.300;2023-05-27T07:44:08;102825.22;;;16.94;100.00
63111;BME280;49201;53.426;10.300;2023-05-27T07:46:34;102801.41;;;16.73;100.00
63111;BME280;49201;53.426;10.300;2023-05-27T07:49:00;102802.09;;;17.02;100.00
63111;BME280;49201;53.426;10.300;2023-05-27T07:51:26;102749.09;;;17.22;100.00
63111;BME280;49201;53.426;10.300;2023-05-27T07:53:52;102794.16;;;16.94;100.00
63111;BME280;49201;53.426;10.300;2023-05-27T07:56:19;102828.31;;;16.80;100.00
63111;BME280;49201;53.426;10.300;2023-05-27T07:58:44;102813.16;;;16.62;100.00
63111;BME280;49201;53.426;10.300;2023-05-27T08:01:11;102772.63;;;16.97;100.00
63111;BME280;49201;53.426;10.300;2023-05-27T08:03:39;102769.78;;;17.20;100.00
63111;BME280;49201;53.426;10.300;2023-05-27T08:06:28;102746.31;;;17.50;100.00
63111;BME280;49201;53.426;10.300;2023-05-27T08:09:19;102709.00;;;17.83;100.00
63111;BME280;49201;53.426;10.300;2023-05-27T08:12:11;102656.31;;;18.30;100.00
63111;BME280;49201;53.426;10.300;2023-05-27T08:14:55;102601.41;;;18.57;100.00
63111;BME280;49201;53.426;10.300;2023-05-27T08:17:38;102561.44;;;17.94;100.00
63111;BME280;49201;53.426;10.300;2023-05-27T08:20:33;102557.41;;;18.64;100.00
63111;BME280;49201;53.426;10.300;2023-05-27T08:23:04;102528.91;;;18.69;100.00
63111;BME280;49201;53.426;10.300;2023-05-27T08:25:30;102528.56;;;18.45;100.00
63111;BME280;49201;53.426;10.300;2023-05-27T08:28:07;102520.28;;;18.70;100.00
63111;BME280;49201;53.426;10.300;2023-05-27T08:30:46;102498.22;;;18.38;100.00
63111;BME280;49201;53.426;10.300;2023-05-27T08:33:19;102492.97;;;18.35;97.50
63111;BME280;49201;53.426;10.300;2023-05-27T08:35:45;102492.91;;;17.78;99.29
63111;BME280;49201;53.426;10.300;2023-05-27T08:38:11;102520.28;;;18.13;99.57
63111;BME280;49201;53.426;10.300;2023-05-27T08:40:39;102491.75;;;18.73;96.89
63111;BME280;49201;53.426;10.300;2023-05-27T08:43:05;102455.78;;;19.06;90.33
63111;BME280;49201;53.426;10.300;2023-05-27T08:45:32;102396.47;;;19.46;80.67
63111;BME280;49201;53.426;10.300;2023-05-27T08:47:59;102396.44;;;19.42;79.07
63111;BME280;49201;53.426;10.300;2023-05-27T08:50:32;102478.72;;;18.67;88.10
63111;BME280;49201;53.426;10.300;2023-05-27T08:52:58;102426.81;;;19.49;78.49
63111;BME280;49201;53.426;10.300;2023-05-27T08:55:27;102468.41;;;19.49;82.77
63111;BME280;49201;53.426;10.300;2023-05-27T08:57:55;102448.97;;;20.08;76.78
63111;BME280;49201;53.426;10.300;2023-05-27T09:00:21;102452.53;;;20.25;73.27
63111;BME280;49201;53.426;10.300;2023-05-27T09:02:48;102488.72;;;19.98;80.36
63111;BME280;49201;53.426;10.300;2023-05-27T09:05:15;102460.38;;;20.29;73.39
63111;BME280;49201;53.426;10.300;2023-05-27T09:07:42;102468.41;;;19.49;75.72
63111;BME280;49201;53.426;10.300;2023-05-27T09:10:08;102477.28;;;19.75;75.67
63111;BME280;49201;53.426;10.300;2023-05-27T09:12:34;102469.94;;;20.32;73.24
63111;BME280;49201;53.426;10.300;2023-05-27T09:15:02;102458.94;;;20.91;70.93
63111;BME280;49201;53.426;10.300;2023-05-27T09:17:29;102483.28;;;21.05;73.76
63111;BME280;49201;53.426;10.300;2023-05-27T09:19:55;102479.84;;;21.12;71.19
63111;BME280;49201;53.426;10.300;2023-05-27T09:22:39;102500.75;;;21.53;71.31
63111;BME280;49201;53.426;10.300;2023-05-27T09:25:06;102467.78;;;21.71;66.18
63111;BME280;49201;53.426;10.300;2023-05-27T09:27:31;102447.75;;;21.51;60.70
63111;BME280;49201;53.426;10.300;2023-05-27T09:29:58;102472.94;;;21.50;61.94
63111;BME280;49201;53.426;10.300;2023-05-27T09:32:32;102458.19;;;21.55;58.61
63111;BME280;49201;53.426;10.300;2023-05-27T09:34:58;102492.09;;;21.97;60.80
63111;BME280;49201;53.426;10.300;2023-05-27T09:37:29;102513.78;;;22.35;63.21
63111;BME280;49201;53.426;10.300;2023-05-27T09:42:42;102516.25;;;20.93;61.59
63111;BME280;49201;53.426;10.300;2023-05-27T09:45:14;102499.56;;;20.55;59.17
63111;BME280;49201;53.426;10.300;2023-05-27T09:47:43;102493.66;;;20.95;57.58
63111;BME280;49201;53.426;10.300;2023-05-27T09:50:12;102490.34;;;21.59;57.57
63111;BME280;49201;53.426;10.300;2023-05-27T09:52:41;102506.91;;;21.83;56.04
63111;BME280;49201;53.426;10.300;2023-05-27T09:55:09;102504.28;;;22.23;55.13
63111;BME280;49201;53.426;10.300;2023-05-27T09:57:36;102508.59;;;22.19;52.76
63111;BME280;49201;53.426;10.300;2023-05-27T10:00:04;102516.41;;;22.58;52.84
63111;BME280;49201;53.426;10.300;2023-05-27T10:02:45;102532.88;;;22.80;52.80
63111;BME280;49201;53.426;10.300;2023-05-27T10:05:15;102554.56;;;23.01;55.21
63111;BME280;49201;53.426;10.300;2023-05-27T10:07:43;102515.31;;;23.13;51.43
63111;BME280;49201;53.426;10.300;2023-05-27T10:10:11;102534.44;;;23.23;51.42
63111;BME280;49201;53.426;10.300;2023-05-27T10:12:40;102523.03;;;23.34;51.69
63111;BME280;49201;53.426;10.300;2023-05-27T10:15:07;102521.50;;;22.88;50.08
63111;BME280;49201;53.426;10.300;2023-05-27T10:17:49;102553.84;;;21.73;51.06
63111;BME280;49201;53.426;10.300;2023-05-27T10:20:26;102557.28;;;21.57;50.66
63111;BME280;49201;53.426;10.300;2023-05-27T10:22:51;102574.19;;;20.56;52.02
63111;BME280;49201;53.426;10.300;2023-05-27T10:25:17;102596.22;;;21.07;53.77
63111;BME280;49201;53.426;10.300;2023-05-27T10:27:44;102575.59;;;21.69;52.42
63111;BME280;49201;53.426;10.300;2023-05-27T10:30:14;102523.41;;;22.23;50.50
63111;BME280;49201;53.426;10.300;2023-05-27T10:32:58;102540.84;;;22.13;51.01
63111;BME280;49201;53.426;10.300;2023-05-27T10:35:27;102552.13;;;22.03;51.55
63111;BME280;49201;53.426;10.300;2023-05-27T10:37:53;102525.09;;;21.58;48.98
63111;BME280;49201;53.426;10.300;2023-05-27T10:40:25;102558.22;;;22.17;49.76
63111;BME280;49201;53.426;10.300;2023-05-27T10:43:00;102508.47;;;22.84;47.99
63111;BME280;49201;53.426;10.300;2023-05-27T10:45:33;102517.16;;;22.89;48.13
63111;BME280;49201;53.426;10.300;2023-05-27T10:47:59;102544.91;;;23.27;49.48
63111;BME280;49201;53.426;10.300;2023-05-27T10:50:31;102533.50;;;23.39;49.46
63111;BME280;49201;53.426;10.300;2023-05-27T10:52:59;102516.97;;;23.35;48.59
63111;BME280;49201;53.426;10.300;2023-05-27T10:55:26;102539.53;;;23.48;49.13
63111;BME280;49201;53.426;10.300;2023-05-27T10:57:52;102509.63;;;23.81;46.39
63111;BME280;49201;53.426;10.300;2023-05-27T11:00:18;102554.28;;;23.58;46.40
63111;BME280;49201;53.426;10.300;2023-05-27T11:02:46;102583.84;;;23.74;47.72
63111;BME280;49201;53.426;10.300;2023-05-27T11:05:15;102552.91;;;22.81;46.71
63111;BME280;49201;53.426;10.300;2023-05-27T11:07:41;102590.06;;;23.58;47.90
63111;BME280;49201;53.426;10.300;2023-05-27T11:10:08;102568.44;;;23.14;47.37
63111;BME280;49201;53.426;10.300;2023-05-27T11:12:34;102553.72;;;22.96;47.09
63111;BME280;49201;53.426;10.300;2023-05-27T11:14:59;102553.63;;;23.25;47.26
63111;BME280;49201;53.426;10.300;2023-05-27T11:17:25;102538.66;;;23.49;47.55
63111;BME280;49201;53.426;10.300;2023-05-27T11:19:51;102522.94;;;23.51;45.18
63111;BME280;49201;53.426;10.300;2023-05-27T11:22:18;102573.72;;;23.11;47.47
63111;BME280;49201;53.426;10.300;2023-05-27T11:25:00;102590.34;;;22.87;48.09
63111;BME280;49201;53.426;10.300;2023-05-27T11:27:39;102567.41;;;23.51;46.75
63111;BME280;49201;53.426;10.300;2023-05-27T11:30:10;102565.25;;;24.11;47.43
63111;BME280;49201;53.426;10.300;2023-05-27T11:32:36;102516.66;;;23.77;45.22
63111;BME280;49201;53.426;10.300;2023-05-27T11:35:02;102539.63;;;23.35;45.65
63111;BME280;49201;53.426;10.300;2023-05-27T11:37:34;102566.91;;;22.54;46.72
63111;BME280;49201;53.426;10.300;2023-05-27T11:40:00;102588.66;;;22.47;48.49
63111;BME280;49201;53.426;10.300;2023-05-27T11:42:28;102557.34;;;22.52;47.21
63111;BME280;49201;53.426;10.300;2023-05-27T11:44:54;102551.91;;;23.21;47.17
63111;BME280;49201;53.426;10.300;2023-05-27T11:47:20;102501.41;;;23.05;45.33
63111;BME280;49201;53.426;10.300;2023-05-27T11:49:48;102552.09;;;22.42;47.44
63111;BME280;49201;53.426;10.300;2023-05-27T11:52:13;102554.75;;;22.26;47.54
63111;BME280;49201;53.426;10.300;2023-05-27T11:54:39;102527.63;;;22.84;46.46
63111;BME280;49201;53.426;10.300;2023-05-27T11:57:04;102493.47;;;23.26;45.57
63111;BME280;49201;53.426;10.300;2023-05-27T11:59:36;102500.00;;;23.83;45.90
63111;BME280;49201;53.426;10.300;2023-05-27T12:02:02;102478.81;;;24.14;46.20
63111;BME280;49201;53.426;10.300;2023-05-27T12:04:30;102496.00;;;23.41;46.71
63111;BME280;49201;53.426;10.300;2023-05-27T12:06:55;102534.56;;;24.28;47.98
63111;BME280;49201;53.426;10.300;2023-05-27T12:09:22;102507.16;;;24.61;47.44
63111;BME280;49201;53.426;10.300;2023-05-27T12:11:47;102502.16;;;24.35;47.39
63111;BME280;49201;53.426;10.300;2023-05-27T12:14:13;102526.47;;;24.49;49.84
63111;BME280;49201;53.426;10.300;2023-05-27T12:16:38;102509.53;;;24.79;48.31
63111;BME280;49201;53.426;10.300;2023-05-27T12:19:04;102462.50;;;24.68;45.62
63111;BME280;49201;53.426;10.300;2023-05-27T12:21:29;102473.16;;;24.50;45.41
63111;BME280;49201;53.426;10.300;2023-05-27T12:23:55;102472.25;;;23.67;45.47
63111;BME280;49201;53.426;10.300;2023-05-27T12:26:21;102506.81;;;24.06;45.55
63111;BME280;49201;53.426;10.300;2023-05-27T12:28:47;102479.09;;;23.81;45.75
63111;BME280;49201;53.426;10.300;2023-05-27T12:31:13;102516.78;;;24.57;47.09
63111;BME280;49201;53.426;10.300;2023-05-27T12:33:38;102437.34;;;24.52;44.02
63111;BME280;49201;53.426;10.300;2023-05-27T12:36:04;102465.31;;;24.50;45.40
63111;BME280;49201;53.426;10.300;2023-05-27T12:38:31;102492.09;;;24.76;46.01
63111;BME280;49201;53.426;10.300;2023-05-27T12:40:56;102458.41;;;24.45;44.40
63111;BME280;49201;53.426;10.300;2023-05-27T12:43:23;102434.25;;;24.19;44.15
63111;BME280;49201;53.426;10.300;2023-05-27T12:45:48;102435.16;;;24.15;43.45
63111;BME280;49201;53.426;10.300;2023-05-27T12:48:14;102453.78;;;23.80;44.91